createdAt,value
2022-12-13T00:00:21.741Z,-2.06
2022-12-13T00:04:09.552Z,-2.10
2022-12-13T00:07:36.558Z,-2.14
2022-12-13T00:11:04.241Z,-2.18
2022-12-13T00:14:32.747Z,-2.22
2022-12-13T00:17:59.816Z,-2.29
2022-12-13T00:21:29.298Z,-2.39
2022-12-13T00:24:56.604Z,-2.48
2022-12-13T00:28:23.895Z,-2.58
2022-12-13T00:31:59.448Z,-2.66
2022-12-13T00:35:27.348Z,-2.74
2022-12-13T00:39:01.707Z,-2.80
2022-12-13T00:42:28.456Z,-2.87
2022-12-13T00:45:56.100Z,-2.93
2022-12-13T00:49:22.937Z,-2.96
2022-12-13T00:52:49.594Z,-2.98
2022-12-13T00:56:19.636Z,-2.98
2022-12-13T00:59:46.362Z,-2.98
2022-12-13T01:03:21.507Z,-2.98
2022-12-13T01:06:51.636Z,-2.99
2022-12-13T01:10:18.653Z,-2.98
2022-12-13T01:13:45.462Z,-2.99
2022-12-13T01:17:12.610Z,-3.00
2022-12-13T01:20:39.604Z,-3.02
2022-12-13T01:24:08.248Z,-3.03
2022-12-13T01:27:35.099Z,-3.07
2022-12-13T01:31:03.575Z,-3.10
2022-12-13T01:34:30.472Z,-3.13
2022-12-13T01:37:58.265Z,-3.18
2022-12-13T01:41:27.206Z,-3.22
2022-12-13T01:45:06.296Z,-3.27
2022-12-13T01:48:39.401Z,-3.31
2022-12-13T01:52:10.446Z,-3.34
2022-12-13T01:55:41.273Z,-3.34
2022-12-13T01:59:11.799Z,-3.33
2022-12-13T02:02:40.944Z,-3.31
2022-12-13T02:06:12.916Z,-3.27
2022-12-13T02:09:40.071Z,-3.24
2022-12-13T02:13:06.903Z,-3.21
2022-12-13T02:16:48.056Z,-3.18
2022-12-13T02:20:40.004Z,-3.14
2022-12-13T02:24:41.969Z,-3.12
2022-12-13T02:28:31.325Z,-3.08
2022-12-13T02:32:06.322Z,-3.07
2022-12-13T02:35:41.787Z,-3.07
2022-12-13T02:39:15.374Z,-3.08
2022-12-13T02:42:49.090Z,-3.10
2022-12-13T02:46:18.593Z,-3.10
2022-12-13T02:49:47.041Z,-3.13
2022-12-13T02:53:16.877Z,-3.16
2022-12-13T02:56:43.566Z,-3.19
2022-12-13T03:00:14.517Z,-3.21
2022-12-13T03:03:48.727Z,-3.20
2022-12-13T03:07:20.887Z,-3.16
2022-12-13T03:10:54.468Z,-3.12
2022-12-13T03:14:23.726Z,-3.06
2022-12-13T03:17:55.667Z,-3.02
2022-12-13T03:21:22.411Z,-3.00
2022-12-13T03:24:49.822Z,-2.96
2022-12-13T03:28:16.726Z,-2.93
2022-12-13T03:31:43.678Z,-2.89
2022-12-13T03:35:22.075Z,-2.86
2022-12-13T03:38:52.238Z,-2.84
2022-12-13T03:42:19.346Z,-2.81
2022-12-13T03:45:46.783Z,-2.78
2022-12-13T03:49:17.121Z,-2.78
2022-12-13T03:52:44.963Z,-2.76
2022-12-13T03:56:12.632Z,-2.74
2022-12-13T03:59:39.386Z,-2.72
2022-12-13T04:03:06.595Z,-2.70
2022-12-13T04:06:33.607Z,-2.69
2022-12-13T04:10:00.350Z,-2.68
2022-12-13T04:13:35.997Z,-2.67
2022-12-13T04:17:02.660Z,-2.67
2022-12-13T04:20:29.529Z,-2.67
2022-12-13T04:23:56.107Z,-2.67
2022-12-13T04:27:27.798Z,-2.68
2022-12-13T04:30:54.814Z,-2.68
2022-12-13T04:34:21.901Z,-2.68
2022-12-13T04:37:48.569Z,-2.67
2022-12-13T04:41:20.406Z,-2.67
2022-12-13T04:44:47.000Z,-2.66
2022-12-13T04:48:13.943Z,-2.64
2022-12-13T04:52:01.247Z,-2.62
2022-12-13T04:55:29.053Z,-2.62
2022-12-13T04:58:57.393Z,-2.60
2022-12-13T05:02:24.472Z,-2.58
2022-12-13T05:06:31.238Z,-2.57
2022-12-13T05:09:57.903Z,-2.55
2022-12-13T05:13:24.448Z,-2.54
2022-12-13T05:16:51.153Z,-2.53
2022-12-13T05:20:18.219Z,-2.54
2022-12-13T05:23:44.862Z,-2.54
2022-12-13T05:27:25.612Z,-2.55
2022-12-13T05:30:53.924Z,-2.54
2022-12-13T05:34:21.250Z,-2.54
2022-12-13T05:37:48.069Z,-2.53
2022-12-13T05:41:24.691Z,-2.53
2022-12-13T05:44:49.816Z,-2.52
2022-12-13T05:48:24.521Z,-2.52
2022-12-13T05:51:51.736Z,-2.52
2022-12-13T05:55:19.112Z,-2.51
2022-12-13T05:58:45.880Z,-2.51
2022-12-13T06:02:15.599Z,-2.49
2022-12-13T06:05:46.787Z,-2.48
2022-12-13T06:09:13.585Z,-2.47
2022-12-13T06:12:43.131Z,-2.47
2022-12-13T06:16:22.907Z,-2.46
2022-12-13T06:19:51.060Z,-2.46
2022-12-13T06:23:17.797Z,-2.46
2022-12-13T06:26:44.990Z,-2.47
2022-12-13T06:30:14.544Z,-2.47
2022-12-13T06:33:41.117Z,-2.45
2022-12-13T06:37:09.558Z,-2.44
2022-12-13T06:40:36.508Z,-2.42
2022-12-13T06:44:03.141Z,-2.43
2022-12-13T06:47:31.447Z,-2.43
2022-12-13T06:51:03.150Z,-2.43
2022-12-13T06:54:29.962Z,-2.43
2022-12-13T06:57:57.855Z,-2.46
2022-12-13T07:01:25.112Z,-2.50
2022-12-13T07:04:51.951Z,-2.55
2022-12-13T07:08:22.161Z,-2.59
2022-12-13T07:11:52.322Z,-2.58
2022-12-13T07:15:19.756Z,-2.56
2022-12-13T07:18:46.911Z,-2.53
2022-12-13T07:22:13.517Z,-2.50
2022-12-13T07:25:40.129Z,-2.47
2022-12-13T07:29:07.331Z,-2.44
2022-12-13T07:32:33.913Z,-2.42
2022-12-13T07:36:07.102Z,-2.39
2022-12-13T07:39:33.742Z,-2.36
2022-12-13T07:43:00.299Z,-2.32
2022-12-13T07:46:32.744Z,-2.28
2022-12-13T07:50:01.672Z,-2.21
2022-12-13T07:53:29.462Z,-2.14
2022-12-13T07:57:04.359Z,-2.09
2022-12-13T08:00:33.325Z,-2.02
2022-12-13T08:03:59.998Z,-1.95
2022-12-13T08:07:30.827Z,-1.87
2022-12-13T08:11:01.627Z,-1.80
2022-12-13T08:14:28.560Z,-1.74
2022-12-13T08:17:57.814Z,-1.70
2022-12-13T08:21:52.564Z,-1.66
2022-12-13T08:25:12.150Z,-1.60
2022-12-13T08:28:39.112Z,-1.56
2022-12-13T08:32:07.933Z,-1.53
2022-12-13T08:35:35.767Z,-1.51
2022-12-13T08:39:04.614Z,-1.50
2022-12-13T08:42:31.180Z,-1.52
2022-12-13T08:46:01.322Z,-1.56
2022-12-13T08:49:28.146Z,-1.59
2022-12-13T08:52:55.037Z,-1.63
2022-12-13T08:56:21.989Z,-1.64
2022-12-13T08:59:48.598Z,-1.63
2022-12-13T09:03:16.070Z,-1.62
2022-12-13T09:06:44.406Z,-1.60
2022-12-13T09:10:25.491Z,-1.61
2022-12-13T09:13:54.752Z,-1.63
2022-12-13T09:17:28.443Z,-1.62
2022-12-13T09:21:11.534Z,-1.57
2022-12-13T09:24:39.006Z,-1.50
2022-12-13T09:28:06.756Z,-1.43
2022-12-13T09:31:36.066Z,-1.33
2022-12-13T09:35:02.771Z,-1.26
2022-12-13T09:38:29.325Z,-1.24
2022-12-13T09:42:01.202Z,-1.25
2022-12-13T09:45:31.876Z,-1.27
2022-12-13T09:49:03.062Z,-1.29
2022-12-13T09:52:41.071Z,-1.29
2022-12-13T09:56:12.995Z,-1.26
2022-12-13T09:59:40.005Z,-1.22
2022-12-13T10:03:14.105Z,-1.18
2022-12-13T10:06:41.028Z,-1.12
2022-12-13T10:10:10.635Z,-1.05
2022-12-13T10:13:44.519Z,-0.98
2022-12-13T10:17:21.425Z,-0.93
2022-12-13T10:20:50.989Z,-0.87
2022-12-13T10:24:31.541Z,-0.83
2022-12-13T10:28:07.772Z,-0.81
2022-12-13T10:31:43.466Z,-0.76
2022-12-13T10:35:24.923Z,-0.73
2022-12-13T10:38:51.569Z,-0.70
2022-12-13T10:42:23.608Z,-0.66
2022-12-13T10:46:01.124Z,-0.60
2022-12-13T10:49:33.343Z,-0.54
2022-12-13T10:53:01.809Z,-0.48
2022-12-13T10:56:37.638Z,-0.47
2022-12-13T11:00:17.983Z,-0.45
2022-12-13T11:03:44.520Z,-0.40
2022-12-13T11:07:26.772Z,-0.39
2022-12-13T11:11:01.472Z,-0.39
2022-12-13T11:14:32.782Z,-0.40
2022-12-13T11:18:02.465Z,-0.42
2022-12-13T11:21:32.799Z,-0.40
2022-12-13T11:25:04.275Z,-0.38
2022-12-13T11:28:59.138Z,-0.39
2022-12-13T11:32:40.846Z,-0.41
2022-12-13T11:36:18.744Z,-0.40
2022-12-13T11:39:51.017Z,-0.38
2022-12-13T11:43:26.418Z,-0.34
2022-12-13T11:46:56.335Z,-0.28
2022-12-13T11:50:34.115Z,-0.25
2022-12-13T11:54:06.597Z,-0.21
2022-12-13T11:57:44.730Z,-0.20
2022-12-13T12:01:16.109Z,-0.16
2022-12-13T12:04:53.614Z,-0.11
2022-12-13T12:08:43.710Z,-0.11
2022-12-13T12:12:22.183Z,-0.11
2022-12-13T12:16:00.442Z,-0.12
2022-12-13T12:19:31.697Z,-0.13
2022-12-13T12:23:08.379Z,-0.17
2022-12-13T12:26:49.805Z,-0.21
2022-12-13T12:30:22.677Z,-0.21
2022-12-13T12:34:00.642Z,-0.21
2022-12-13T12:37:40.678Z,-0.21
2022-12-13T12:41:21.082Z,-0.23
2022-12-13T12:45:03.883Z,-0.25
2022-12-13T12:49:01.788Z,-0.27
2022-12-13T12:52:42.826Z,-0.30
2022-12-13T12:56:22.524Z,-0.34
2022-12-13T13:00:03.441Z,-0.37
2022-12-13T13:03:35.796Z,-0.39
2022-12-13T13:07:23.032Z,-0.41
2022-12-13T13:10:53.298Z,-0.44
2022-12-13T13:14:34.353Z,-0.49
2022-12-13T13:18:01.768Z,-0.53
2022-12-13T13:21:49.404Z,-0.56
2022-12-13T13:25:30.354Z,-0.60
2022-12-13T13:29:17.016Z,-0.64
2022-12-13T13:32:56.925Z,-0.68
2022-12-13T13:36:47.956Z,-0.70
2022-12-13T13:40:31.305Z,-0.72
2022-12-13T13:44:01.737Z,-0.75
2022-12-13T13:47:40.091Z,-0.79
2022-12-13T13:51:29.165Z,-0.83
2022-12-13T13:55:24.646Z,-0.87
2022-12-13T13:59:24.829Z,-0.90
2022-12-13T14:03:33.772Z,-0.93
2022-12-13T14:07:33.714Z,-0.96
2022-12-13T14:11:25.875Z,-0.98
2022-12-13T14:15:26.672Z,-1.01
2022-12-13T14:19:23.048Z,-1.04
2022-12-13T14:22:57.733Z,-1.08
2022-12-13T14:26:56.899Z,-1.12
2022-12-13T14:30:27.832Z,-1.16
2022-12-13T14:33:58.086Z,-1.22
2022-12-13T14:37:30.622Z,-1.27
2022-12-13T14:40:59.946Z,-1.30
2022-12-13T14:44:27.905Z,-1.34
2022-12-13T14:47:57.477Z,-1.37
2022-12-13T14:51:34.623Z,-1.41
2022-12-13T14:55:04.557Z,-1.44
2022-12-13T14:58:31.313Z,-1.46
2022-12-13T15:02:02.547Z,-1.49
2022-12-13T15:05:34.250Z,-1.53
2022-12-13T15:09:01.795Z,-1.54
2022-12-13T15:12:29.951Z,-1.56
2022-12-13T15:16:00.228Z,-1.58
2022-12-13T15:19:30.171Z,-1.61
2022-12-13T15:23:16.092Z,-1.63
2022-12-13T15:26:45.232Z,-1.64
2022-12-13T15:30:17.349Z,-1.66
2022-12-13T15:33:48.673Z,-1.68
2022-12-13T15:37:29.188Z,-1.70
2022-12-13T15:40:56.963Z,-1.71
2022-12-13T15:44:28.143Z,-1.73
2022-12-13T15:47:55.734Z,-1.74
2022-12-13T15:51:28.663Z,-1.74
2022-12-13T15:55:01.794Z,-1.76
2022-12-13T15:58:32.735Z,-1.78
2022-12-13T16:02:00.656Z,-1.81
2022-12-13T16:05:31.494Z,-1.83
2022-12-13T16:09:01.817Z,-1.86
2022-12-13T16:12:34.483Z,-1.90
2022-12-13T16:16:08.875Z,-1.93
2022-12-13T16:19:36.482Z,-1.96
2022-12-13T16:23:08.835Z,-1.98
2022-12-13T16:26:37.110Z,-2.00
2022-12-13T16:30:11.305Z,-2.01
2022-12-13T16:33:37.975Z,-2.03
2022-12-13T16:37:25.207Z,-2.04
2022-12-13T16:40:55.097Z,-2.05
2022-12-13T16:44:30.017Z,-2.07
2022-12-13T16:47:56.669Z,-2.09
2022-12-13T16:51:23.831Z,-2.13
2022-12-13T16:54:52.877Z,-2.16
2022-12-13T16:58:22.448Z,-2.18
2022-12-13T17:01:47.921Z,-2.21
2022-12-13T17:05:15.166Z,-2.25
2022-12-13T17:08:41.730Z,-2.28
2022-12-13T17:12:09.642Z,-2.31
2022-12-13T17:15:36.834Z,-2.34
2022-12-13T17:19:03.551Z,-2.38
2022-12-13T17:22:30.447Z,-2.43
2022-12-13T17:25:58.008Z,-2.47
2022-12-13T17:29:26.238Z,-2.50
2022-12-13T17:32:52.905Z,-2.52
2022-12-13T17:36:19.682Z,-2.54
2022-12-13T17:39:46.740Z,-2.54
2022-12-13T17:43:22.986Z,-2.52
2022-12-13T17:46:56.057Z,-2.52
2022-12-13T17:50:23.655Z,-2.51
2022-12-13T17:53:50.284Z,-2.52
2022-12-13T17:57:17.190Z,-2.53
2022-12-13T18:00:43.896Z,-2.55
2022-12-13T18:04:12.602Z,-2.57
2022-12-13T18:07:39.252Z,-2.59
2022-12-13T18:14:54.349Z,-2.66
2022-12-13T18:18:21.368Z,-2.69
2022-12-13T18:21:48.312Z,-2.75
2022-12-13T18:25:15.018Z,-2.81
2022-12-13T18:28:42.513Z,-2.88
2022-12-13T18:32:09.284Z,-2.94
2022-12-13T18:35:35.954Z,-2.99
2022-12-13T18:39:03.096Z,-3.02
2022-12-13T18:42:31.389Z,-3.05
2022-12-13T18:45:57.943Z,-3.10
2022-12-13T18:49:25.043Z,-3.14
2022-12-13T18:52:51.618Z,-3.18
2022-12-13T18:56:19.598Z,-3.20
2022-12-13T18:59:54.323Z,-3.21
2022-12-13T19:03:22.230Z,-3.21
2022-12-13T19:06:49.022Z,-3.21
2022-12-13T19:10:15.706Z,-3.22
2022-12-13T19:13:42.420Z,-3.23
2022-12-13T19:17:09.014Z,-3.24
2022-12-13T19:20:35.659Z,-3.25
2022-12-13T19:24:02.510Z,-3.27
2022-12-13T19:27:29.111Z,-3.29
2022-12-13T19:30:56.085Z,-3.33
2022-12-13T19:34:23.555Z,-3.35
2022-12-13T19:37:50.289Z,-3.38
2022-12-13T19:41:19.427Z,-3.41
2022-12-13T19:44:45.988Z,-3.46
2022-12-13T19:48:12.887Z,-3.50
2022-12-13T19:51:40.202Z,-3.56
2022-12-13T19:55:07.919Z,-3.62
2022-12-13T19:58:34.970Z,-3.70
2022-12-13T20:02:02.095Z,-3.79
2022-12-13T20:05:29.460Z,-3.91
2022-12-13T20:08:56.178Z,-4.04
2022-12-13T20:12:23.427Z,-4.17
2022-12-13T20:15:50.821Z,-4.30
2022-12-13T20:19:18.298Z,-4.43
2022-12-13T20:22:45.140Z,-4.56
2022-12-13T20:26:18.080Z,-4.67
2022-12-13T20:29:43.263Z,-4.77
2022-12-13T20:33:15.018Z,-4.87
2022-12-13T20:36:42.165Z,-4.96
2022-12-13T20:40:11.378Z,-5.05
2022-12-13T20:43:38.430Z,-5.14
2022-12-13T20:47:05.446Z,-5.21
2022-12-13T20:50:32.252Z,-5.28
2022-12-13T20:53:59.422Z,-5.37
2022-12-13T20:57:26.039Z,-5.45
2022-12-13T21:00:53.224Z,-5.51
2022-12-13T21:04:20.004Z,-5.58
2022-12-13T21:08:04.463Z,-5.62
2022-12-13T21:11:33.442Z,-5.67
2022-12-13T21:15:00.155Z,-5.75
2022-12-13T21:18:26.822Z,-5.79
2022-12-13T21:21:54.757Z,-5.85
2022-12-13T21:25:21.487Z,-5.89
2022-12-13T21:28:48.100Z,-5.95
2022-12-13T21:32:14.739Z,-5.98
2022-12-13T21:35:41.479Z,-6.03
2022-12-13T21:39:12.924Z,-6.06
2022-12-13T21:42:39.532Z,-6.11
2022-12-13T21:46:08.696Z,-6.14
2022-12-13T21:49:35.322Z,-6.18
2022-12-13T21:53:02.068Z,-6.23
2022-12-13T21:56:53.912Z,-6.26
2022-12-13T22:00:21.696Z,-6.31
2022-12-13T22:03:49.071Z,-6.34
2022-12-13T22:07:17.541Z,-6.38
2022-12-13T22:10:58.366Z,-6.42
2022-12-13T22:14:25.233Z,-6.48
2022-12-13T22:17:51.996Z,-6.53
2022-12-13T22:21:18.747Z,-6.55
2022-12-13T22:24:52.669Z,-6.58
2022-12-13T22:28:21.635Z,-6.60
2022-12-13T22:31:49.369Z,-6.61
2022-12-13T22:35:16.799Z,-6.62
2022-12-13T22:38:43.862Z,-6.63
2022-12-13T22:42:10.696Z,-6.64
2022-12-13T22:45:37.654Z,-6.65
2022-12-13T22:49:05.189Z,-6.65
2022-12-13T22:52:33.909Z,-6.68
2022-12-13T22:56:08.463Z,-6.71
2022-12-13T22:59:35.153Z,-6.74
2022-12-13T23:03:01.900Z,-6.75
2022-12-13T23:06:30.302Z,-6.78
2022-12-13T23:09:57.890Z,-6.81
2022-12-13T23:13:24.850Z,-6.84
2022-12-13T23:16:51.732Z,-6.88
2022-12-13T23:20:18.984Z,-6.91
2022-12-13T23:23:46.304Z,-6.94
2022-12-13T23:27:13.031Z,-6.98
2022-12-13T23:30:39.984Z,-7.02
2022-12-13T23:34:07.300Z,-7.08
2022-12-13T23:37:35.538Z,-7.15
2022-12-13T23:41:08.169Z,-7.21
2022-12-13T23:44:35.277Z,-7.23
2022-12-13T23:48:01.802Z,-7.25
2022-12-13T23:51:28.657Z,-7.28
2022-12-13T23:54:55.849Z,-7.29
2022-12-13T23:58:24.242Z,-7.32
